Terminal Aerodrome Forecast
Issued by NWS

Home | Current Version | Previous Version | Text Only | Print | Product List | Glossary On
Versions: 1 2 3 4 5 6 7 8 9 10 11 12 13 14 15 16 17 18 19 20 21 22 23 24 25
000
FTUS43 KABR 231721
TAFMBG
TAF
KMBG 231721Z 2318/2418 09006KT P6SM OVC008
     FM240000 08010KT P6SM VCSH OVC010
     FM241000 06012KT 3SM -SN OVC003
     FM241600 02015KT 3/4SM -SN OVC008=

USA.gov is the U.S. government's official web portal to all federal, state and local government web resources and services.